NCAR-RAP Real-Time Weather Data

Output produced by METARs form (01 December 2020  18:18 UTC)
found at http://weather.rap.ucar.edu/surface/
 
KCVG 011652Z 26013KT 10SM SCT018 OVC039 M01/M05 A2999 RMK AO2 CIG 017 36R SLP161 SNE28 P0000 T10111050
KCVG 011552Z 27015KT 10SM -SN OVC016 M01/M04 A2999 RMK AO2 SNE18B50 SLP161 P0000 T10111044
KCVG 011452Z 27014KT 10SM -SN OVC016 M01/M04 A2998 RMK AO2 SNB49 SLP157 INTMT -SN P0000 60000 T10111044 52016
KCVG 011352Z 27010KT 10SM OVC016 M01/M04 A2996 RMK AO2 SLP152 T10111044
KCVG 011252Z 28014KT 10SM OVC018 M01/M04 A2994 RMK AO2 SLP145 T10111044
KCVG 011152Z 28010KT 10SM OVC016 M02/M04 A2993 RMK AO2 SLP140 4/001 60001 70046 I6000 T10171039 11011 21017 53014
KCVG 011111Z 29013KT 10SM OVC016 M02/M04 A2991 RMK AO2 T10171039
KCVG 011052Z 29016KT 6SM BR OVC014 M02/M04 A2991 RMK AO2 SLP133 P0000 I1000 T10171039
KCVG 010952Z 29017KT 7SM OVC014 M02/M04 A2989 RMK AO2 PK WND 29026/0909 SLP128 SNE26 P0000 T10171039
KCVG 010852Z COR 30016KT 9SM -SN OVC012 M02/M04 A2988 RMK AO2 PK WND 29026/0842 UPB39SNE39 SLP126 P0000 60001 T10171039 53013
KCVG 010752Z 29015G23KT 1SM R18C/P6000FT -SN BR FEW008 BKN012 OVC026 M01/M03 A2987 RMK AO2 SFC VIS 5 SLP120 P0000 T10111033
KCVG 010652Z 28016KT 1SM R18C/P6000FT -SN BR FEW009 BKN012 OVC026 M01/M03 A2985 RMK AO2 SFC VIS 1 3/4 SLP114 P0001 T10111033
KCVG 010621Z 29013G20KT 1SM R18C/P6000FT -SN BR SCT012 OVC018 M01/M03 A2985 RMK AO2 SFC VIS 1 3/4 CIG 012 36R P0000 T10111033
KCVG 010552Z 29014KT 1SM R18C/P6000FT -SN BR BKN012 OVC018 M01/M03 A2985 RMK AO2 SFC VIS 2 SLP112 4/001 P0001 60008 T10111028 10000 21011 50004
KCVG 010518Z 29016KT 1SM R18C/P6000FT -SN BR FEW008 BKN016 OVC021 M01/M03 A2985 RMK AO2 SFC VIS 1 1/4 P0000 T10111028
KCVG 010506Z 29014KT 1SM R18C/P6000FT -SN BR FEW008 BKN014 OVC021 M01/M03 A2985 RMK AO2 SFC VIS 1 1/4 CIG 009 36R P0000 T10111028
KCVG 010452Z 29015KT 1SM R18C/P6000FT -SN BR BKN013 OVC025 M01/M03 A2985 RMK AO2 SFC VIS 2 1/2 SLP113 P0001 T10111028 400831011